Huvudsida
METAR-TAF:

METAR-TAF

Flygplatser :

Puerto Princesa, Filippinerna

latitud: 09-44-32N, longitud: 118-45-31E, höjd: 22 m

Aktuellt väderrapport

Denna rapport gjordes för 2 timmar och 57 minuter sedan, klockan 18:00 UTC
Vind 4 kt från nord/nordväst
Temperatur 23°C
Fuktighet 78%
Tryck 1013 hPa
Sikt 10 km eller mer
Få moln på en höjd av 1900 ft

METAR: RPVP 211800Z 33004KT 9999 FEW019 23/19 Q1013 RMK A2991

Tid: 04:57 (20:57 UTC)

Väderprognos

Denna rapport gjordes för 3 timmar och 57 minuter sedan, klockan 17:00 UTC
Prognos gäller från 21 kl. 18 UTC till 22 kl. 18 UTC
Vind 10 kt från ost
Sikt 10 km eller mer
Få moln på en höjd av 1900 ft
Temporärt
från 21 kl. 18 UTC till 21 kl. 24 UTC
Vind 6 kt från väst
Temporärt
från 22 kl. 02 UTC till 22 kl. 08 UTC
Vind 16 kt från ost
Få moln på en höjd av 1700 ft, Högtornande cumulus.
Få moln på en höjd av 1900 ft

TAF: RPVP 211700Z 2118/2218 09010KT 9999 FEW019 TEMPO 2118/2124 27006KT TEMPO 2202/2208 09016KT FEW017TCU FEW019

Aktuella väderrapporter och prognoser från 4000 flygplatser (METAR- och TAF-rapporter).

De tillgängliga stationerna syns som gula och röda prickar på kartan.

För musen över prickarna för att se namnen på stationerna.

Klicka sedan för att få väderrapporter och prognoser.

För att ändra kartan: Klicka på de gröna knapparna med ett svart kors på för att zooma in; den gröna knappen med ett streck på för att zooma ut; eller på de gröna pilarna för angränsande kartor.


METAR-TAF: